Time;durP1;ratioP1;P1;durP2;ratioP2;P2;SDS_P1;SDS_P2;PMS_P1;PMS_P2;Temp;Humidity;BMP_temperature;BMP_pressure;BME280_temperature;BME280_humidity;BME280_pressure;Samples;Min_cycle;Max_cycle;Signal;HPM_P1;HPM_P2
2023/10/31 00:02:11;;;;;;;0.40;0.40;;;10.00;99.90;;;;;;4969333;28;20100;-83
2023/10/31 00:04:37;;;;;;;0.40;0.40;;;9.90;99.90;;;;;;5016217;28;20043;-83
2023/10/31 00:07:03;;;;;;;;;;;9.90;99.90;;;;;;5027017;28;20040;-81
2023/10/31 00:09:29;;;;;;;0.50;0.50;;;10.00;99.90;;;;;;5027554;28;19978;-83
2023/10/31 00:11:55;;;;;;;0.40;0.40;;;9.90;99.90;;;;;;4990254;28;20451;-84
2023/10/31 00:14:20;;;;;;;0.40;0.40;;;10.00;99.90;;;;;;5010834;28;20045;-84
2023/10/31 00:16:48;;;;;;;0.40;0.40;;;10.00;99.90;;;;;;5040544;28;20130;-83
2023/10/31 00:19:14;;;;;;;0.30;0.30;;;10.00;99.90;;;;;;5045302;28;20054;-85
2023/10/31 00:21:39;;;;;;;0.35;0.35;;;10.00;99.90;;;;;;5009910;28;20496;-86
2023/10/31 00:24:05;;;;;;;0.30;0.30;;;10.00;99.90;;;;;;4995613;28;20050;-82
2023/10/31 00:26:31;;;;;;;0.40;0.40;;;10.00;99.90;;;;;;5064990;28;20367;-86
2023/10/31 00:28:57;;;;;;;0.38;0.38;;;10.00;99.90;;;;;;5053172;28;20044;-84
2023/10/31 00:31:22;;;;;;;0.40;0.40;;;10.00;99.90;;;;;;5054958;28;20047;-85
2023/10/31 00:33:48;;;;;;;0.40;0.40;;;10.00;99.90;;;;;;5005109;28;20054;-83
2023/10/31 00:36:14;;;;;;;0.40;0.40;;;10.10;99.90;;;;;;5005724;28;20095;-85
2023/10/31 00:38:40;;;;;;;0.50;0.50;;;10.10;99.90;;;;;;5023374;28;20134;-86
2023/10/31 00:41:05;;;;;;;0.40;0.40;;;10.10;99.90;;;;;;4984943;28;20423;-85
2023/10/31 00:43:31;;;;;;;0.40;0.40;;;10.20;99.90;;;;;;5024308;28;20043;-87
2023/10/31 00:45:57;;;;;;;0.50;0.50;;;10.10;99.90;;;;;;5041391;28;20130;-85
2023/10/31 00:48:22;;;;;;;0.30;0.30;;;10.20;99.90;;;;;;5024248;28;20049;-85
2023/10/31 00:50:48;;;;;;;0.40;0.40;;;10.10;99.90;;;;;;5040458;28;20049;-85
2023/10/31 00:53:14;;;;;;;0.35;0.35;;;10.10;99.90;;;;;;4968996;28;20044;-87
2023/10/31 00:55:40;;;;;;;0.40;0.40;;;10.00;99.90;;;;;;5015286;28;20556;-86
2023/10/31 00:58:06;;;;;;;0.20;0.20;;;10.00;99.90;;;;;;5023494;28;20054;-85
2023/10/31 01:00:33;;;;;;;0.50;0.50;;;10.00;99.90;;;;;;4972213;28;20047;-86
2023/10/31 01:02:59;;;;;;;0.50;0.50;;;10.00;99.90;;;;;;5023647;28;20088;-86
2023/10/31 01:05:26;;;;;;;0.28;0.28;;;10.00;99.90;;;;;;5015613;28;20046;-85
2023/10/31 01:07:52;;;;;;;0.40;0.40;;;10.00;99.90;;;;;;5058445;28;20056;-85
2023/10/31 01:10:18;;;;;;;0.40;0.40;;;10.00;99.90;;;;;;5014830;28;20045;-83
2023/10/31 01:12:43;;;;;;;0.35;0.35;;;10.00;99.90;;;;;;4972600;28;20389;-86
2023/10/31 01:15:09;;;;;;;0.30;0.30;;;10.00;99.90;;;;;;5056181;28;20059;-84
2023/10/31 01:17:35;;;;;;;0.32;0.32;;;10.00;99.90;;;;;;5025061;28;20051;-86
2023/10/31 01:20:00;;;;;;;0.98;0.85;;;9.90;99.90;;;;;;5054023;28;20037;-86
2023/10/31 01:22:26;;;;;;;0.40;0.40;;;9.90;99.90;;;;;;5040972;28;20773;-86
2023/10/31 01:24:52;;;;;;;0.40;0.40;;;9.90;99.90;;;;;;5019872;28;20076;-86
2023/10/31 01:27:18;;;;;;;0.30;0.30;;;9.90;99.90;;;;;;5042252;28;20078;-86
2023/10/31 01:29:43;;;;;;;0.40;0.40;;;9.80;99.90;;;;;;5058466;28;20036;-85
2023/10/31 01:32:09;;;;;;;0.38;0.38;;;9.80;99.90;;;;;;5016598;28;20367;-88
2023/10/31 01:34:35;;;;;;;1.48;1.48;;;9.80;99.90;;;;;;5042409;28;20049;-89
2023/10/31 01:37:00;;;;;;;4.00;0.82;;;9.80;99.90;;;;;;5001429;28;20445;-88
2023/10/31 01:39:26;;;;;;;0.52;0.52;;;9.80;99.90;;;;;;5000727;28;20065;-88
2023/10/31 01:41:54;;;;;;;0.40;0.40;;;9.80;99.90;;;;;;5025899;28;20041;-86
2023/10/31 01:44:20;;;;;;;0.50;0.50;;;9.80;99.90;;;;;;5034623;28;20100;-87
2023/10/31 01:46:46;;;;;;;0.40;0.40;;;9.80;99.90;;;;;;5040787;28;20074;-86
2023/10/31 01:49:12;;;;;;;0.40;0.40;;;9.80;99.90;;;;;;4987445;28;20129;-89
2023/10/31 01:51:38;;;;;;;0.40;0.40;;;9.80;99.90;;;;;;5052285;28;20115;-89
2023/10/31 01:54:04;;;;;;;0.40;0.40;;;9.80;99.90;;;;;;5016370;28;20485;-87
2023/10/31 01:56:31;;;;;;;0.38;0.38;;;9.70;99.90;;;;;;5051068;28;20048;-87
2023/10/31 01:58:57;;;;;;;0.50;0.50;;;9.70;99.90;;;;;;5001065;28;20120;-89
2023/10/31 02:01:23;;;;;;;0.40;0.40;;;9.70;99.90;;;;;;4941476;28;20034;-88
2023/10/31 02:03:48;;;;;;;0.40;0.40;;;9.60;99.90;;;;;;5041517;28;20081;-87
2023/10/31 02:06:14;;;;;;;0.25;0.25;;;9.60;99.90;;;;;;5043914;28;20125;-88
2023/10/31 02:08:40;;;;;;;0.40;0.40;;;9.60;99.90;;;;;;5053713;28;20040;-87
2023/10/31 02:11:09;;;;;;;0.40;0.40;;;9.60;99.90;;;;;;5025850;28;20047;-88
2023/10/31 02:13:35;;;;;;;0.50;0.50;;;9.60;99.90;;;;;;5040948;28;20041;-87
2023/10/31 02:16:02;;;;;;;;;;;9.50;99.90;;;;;;5017935;28;20039;-87
2023/10/31 02:18:27;;;;;;;0.40;0.40;;;9.50;99.90;;;;;;5016439;28;19953;-88
2023/10/31 02:20:53;;;;;;;0.40;0.40;;;9.50;99.90;;;;;;5051565;28;20045;-87
2023/10/31 02:23:19;;;;;;;0.30;0.30;;;9.50;99.90;;;;;;5057302;28;20505;-87
2023/10/31 02:25:44;;;;;;;0.40;0.40;;;9.50;99.90;;;;;;4994784;28;20126;-88
2023/10/31 02:28:10;;;;;;;0.40;0.40;;;9.60;99.90;;;;;;5029455;28;20047;-87
2023/10/31 02:30:36;;;;;;;0.40;0.40;;;9.50;99.90;;;;;;5045629;28;20453;-86
2023/10/31 02:33:02;;;;;;;0.40;0.40;;;9.60;99.90;;;;;;5044865;28;20379;-87
2023/10/31 02:35:28;;;;;;;0.40;0.40;;;9.50;99.90;;;;;;4998683;28;20038;-87
2023/10/31 02:37:53;;;;;;;0.45;0.45;;;9.50;99.90;;;;;;4973884;28;20064;-86
2023/10/31 02:40:19;;;;;;;0.30;0.30;;;9.50;99.90;;;;;;5002168;28;20396;-86
2023/10/31 02:42:45;;;;;;;0.30;0.30;;;9.50;99.90;;;;;;5025090;28;20125;-88
2023/10/31 02:45:11;;;;;;;0.43;0.43;;;9.50;99.90;;;;;;5012360;28;20052;-87
2023/10/31 02:47:37;;;;;;;0.30;0.30;;;9.50;99.90;;;;;;4998980;28;20047;-86
2023/10/31 02:50:03;;;;;;;0.43;0.43;;;9.50;99.90;;;;;;5023314;28;20500;-87
2023/10/31 02:52:29;;;;;;;;;;;9.50;99.90;;;;;;5024628;28;20049;-87
2023/10/31 02:54:54;;;;;;;0.50;0.50;;;9.50;99.90;;;;;;5019351;28;19926;-86
2023/10/31 02:57:20;;;;;;;0.50;0.50;;;9.50;99.90;;;;;;5023062;28;20087;-86
2023/10/31 02:59:46;;;;;;;0.43;0.43;;;9.50;99.90;;;;;;5015715;28;20040;-87
2023/10/31 03:02:12;;;;;;;0.43;0.43;;;9.50;99.90;;;;;;5024396;28;20069;-88
2023/10/31 03:04:37;;;;;;;2.70;0.95;;;9.50;99.90;;;;;;4965702;28;20034;-87
2023/10/31 03:07:03;;;;;;;0.50;0.50;;;9.50;99.90;;;;;;5042916;28;20074;-86
2023/10/31 03:09:29;;;;;;;0.35;0.35;;;9.50;99.90;;;;;;5059854;28;20123;-88
2023/10/31 03:11:55;;;;;;;0.40;0.40;;;9.50;99.90;;;;;;5050691;28;20052;-86
2023/10/31 03:14:20;;;;;;;0.40;0.40;;;9.60;99.90;;;;;;5034180;28;20049;-87
2023/10/31 03:16:46;;;;;;;0.40;0.40;;;9.50;99.90;;;;;;4982639;28;20047;-87
2023/10/31 03:19:12;;;;;;;0.60;0.60;;;9.50;99.90;;;;;;5037048;28;20064;-87
2023/10/31 03:21:38;;;;;;;0.50;0.50;;;9.50;99.90;;;;;;5040064;28;20507;-87
2023/10/31 03:24:04;;;;;;;0.75;0.75;;;9.50;99.90;;;;;;5045108;28;20496;-87
2023/10/31 03:26:29;;;;;;;;;;;9.60;99.90;;;;;;5002895;28;20082;-87
2023/10/31 03:28:57;;;;;;;0.32;0.32;;;9.40;99.90;;;;;;4983373;28;19980;-84
2023/10/31 03:31:24;;;;;;;0.60;0.60;;;9.60;99.90;;;;;;5035072;28;20099;-85
2023/10/31 03:33:50;;;;;;;0.50;0.50;;;9.50;99.90;;;;;;5040306;28;20398;-86
2023/10/31 03:36:15;;;;;;;0.40;0.40;;;9.50;99.90;;;;;;5014541;28;20049;-86
2023/10/31 03:38:41;;;;;;;0.50;0.50;;;9.50;99.90;;;;;;5056099;28;20041;-87
2023/10/31 03:41:08;;;;;;;0.52;0.52;;;9.50;99.90;;;;;;5017115;28;20034;-84
2023/10/31 03:43:33;;;;;;;0.40;0.40;;;9.50;99.90;;;;;;5028576;28;20045;-85
2023/10/31 03:45:59;;;;;;;0.70;0.70;;;9.50;99.90;;;;;;5011665;28;20033;-85
2023/10/31 03:48:25;;;;;;;0.47;0.47;;;9.50;99.90;;;;;;5011727;28;20049;-85
2023/10/31 03:50:51;;;;;;;0.80;0.80;;;9.50;99.90;;;;;;5002610;28;20066;-84
2023/10/31 03:53:17;;;;;;;0.30;0.30;;;9.50;99.90;;;;;;5022610;28;20370;-84
2023/10/31 03:55:42;;;;;;;;;;;9.50;99.90;;;;;;5010666;28;20065;-85
2023/10/31 03:58:08;;;;;;;0.50;0.50;;;9.60;99.90;;;;;;4992950;28;19926;-84
2023/10/31 04:00:34;;;;;;;0.50;0.50;;;9.60;99.90;;;;;;5013395;28;20050;-84
2023/10/31 04:02:59;;;;;;;0.40;0.40;;;9.60;99.90;;;;;;5046983;28;20122;-84
2023/10/31 04:05:25;;;;;;;0.40;0.40;;;9.60;99.90;;;;;;4995154;28;20039;-84
2023/10/31 04:07:51;;;;;;;0.95;0.95;;;9.70;99.90;;;;;;5046695;28;20078;-82
2023/10/31 04:10:18;;;;;;;0.43;0.43;;;9.70;99.90;;;;;;5011119;28;20047;-83
2023/10/31 04:12:44;;;;;;;0.50;0.50;;;9.70;99.90;;;;;;4997268;28;20127;-83
2023/10/31 04:15:10;;;;;;;0.30;0.30;;;9.70;99.90;;;;;;5025198;28;20130;-82
2023/10/31 04:17:35;;;;;;;0.50;0.50;;;9.80;99.90;;;;;;5036160;28;20468;-83
2023/10/31 04:20:02;;;;;;;0.40;0.40;;;9.80;99.90;;;;;;5031319;28;20036;-83
2023/10/31 04:22:27;;;;;;;0.50;0.50;;;9.80;99.90;;;;;;4990465;28;20062;-83
2023/10/31 04:24:53;;;;;;;0.40;0.40;;;9.80;99.90;;;;;;4994477;28;20040;-83
2023/10/31 04:27:19;;;;;;;0.40;0.40;;;9.80;99.90;;;;;;5016003;28;20038;-83
2023/10/31 04:29:45;;;;;;;0.47;0.47;;;9.80;99.90;;;;;;5019625;28;20503;-82
2023/10/31 04:32:11;;;;;;;0.40;0.40;;;9.80;99.90;;;;;;5023589;28;20051;-83
2023/10/31 04:34:37;;;;;;;0.40;0.40;;;9.70;99.90;;;;;;5073047;28;20124;-82
2023/10/31 04:37:03;;;;;;;0.50;0.50;;;9.80;99.90;;;;;;5019766;28;20098;-83
2023/10/31 04:39:28;;;;;;;0.50;0.50;;;9.70;99.90;;;;;;5040685;28;20047;-82
2023/10/31 04:41:54;;;;;;;0.50;0.50;;;9.70;99.90;;;;;;4975768;28;20066;-82
2023/10/31 04:44:20;;;;;;;0.60;0.60;;;9.80;99.90;;;;;;5013115;28;20454;-81
2023/10/31 04:46:45;;;;;;;1.00;0.82;;;9.70;99.90;;;;;;5029950;28;20036;-82
2023/10/31 04:49:11;;;;;;;0.40;0.40;;;9.70;99.90;;;;;;5045915;28;20040;-81
2023/10/31 04:51:38;;;;;;;0.43;0.43;;;9.80;99.90;;;;;;5055849;28;20032;-83
2023/10/31 04:54:04;;;;;;;0.45;0.45;;;9.70;99.90;;;;;;5022894;28;20060;-82
2023/10/31 04:56:30;;;;;;;0.32;0.32;;;9.70;99.90;;;;;;4996719;28;20108;-83
2023/10/31 04:58:56;;;;;;;0.40;0.40;;;9.70;99.90;;;;;;5012948;28;20059;-84
2023/10/31 05:01:21;;;;;;;0.60;0.60;;;9.70;99.90;;;;;;5013199;28;20040;-84
2023/10/31 05:03:47;;;;;;;0.40;0.40;;;9.70;99.90;;;;;;5013325;28;20046;-84
2023/10/31 05:06:13;;;;;;;0.50;0.50;;;9.80;99.90;;;;;;5053389;28;20044;-85
2023/10/31 05:08:38;;;;;;;0.30;0.30;;;9.70;99.90;;;;;;5013571;28;20045;-84
2023/10/31 05:11:04;;;;;;;0.52;0.52;;;9.70;99.90;;;;;;5030867;28;20055;-84
2023/10/31 05:13:30;;;;;;;0.65;0.65;;;9.70;99.90;;;;;;5022716;28;20040;-83
2023/10/31 05:15:55;;;;;;;0.40;0.40;;;9.80;99.90;;;;;;5034299;28;20059;-84
2023/10/31 05:18:21;;;;;;;0.40;0.40;;;9.80;99.90;;;;;;5028359;28;20130;-85
2023/10/31 05:20:47;;;;;;;0.30;0.30;;;9.80;99.90;;;;;;5015271;28;20055;-84
2023/10/31 05:23:13;;;;;;;0.40;0.40;;;9.80;99.90;;;;;;4954591;28;20148;-84
2023/10/31 05:25:38;;;;;;;0.30;0.30;;;9.80;99.90;;;;;;5018436;28;20026;-84
2023/10/31 05:28:04;;;;;;;0.63;0.63;;;9.70;99.90;;;;;;4991529;28;20052;-86
2023/10/31 05:30:30;;;;;;;;;;;9.80;99.90;;;;;;4995043;28;20051;-86
2023/10/31 05:32:56;;;;;;;0.38;0.38;;;9.80;99.90;;;;;;5015141;28;19917;-84
2023/10/31 05:35:21;;;;;;;0.50;0.50;;;9.80;99.90;;;;;;5023725;28;20117;-84
2023/10/31 05:37:47;;;;;;;0.70;0.70;;;9.90;99.90;;;;;;5057174;28;20059;-85
2023/10/31 05:40:14;;;;;;;0.30;0.30;;;9.80;99.90;;;;;;4970805;28;20035;-84
2023/10/31 05:42:40;;;;;;;0.22;0.22;;;9.80;99.90;;;;;;4964723;28;20070;-84
2023/10/31 05:45:06;;;;;;;0.43;0.43;;;9.90;99.90;;;;;;5056397;28;20095;-83
2023/10/31 05:47:32;;;;;;;0.32;0.32;;;9.80;99.90;;;;;;5040668;28;20044;-84
2023/10/31 05:49:58;;;;;;;0.30;0.30;;;9.80;99.90;;;;;;5028793;28;20483;-84
2023/10/31 05:52:32;;;;;;;0.30;0.30;;;9.80;99.90;;;;;;5029274;28;20044;-83
2023/10/31 05:54:58;;;;;;;0.30;0.30;;;9.80;99.90;;;;;;5003020;28;20053;-84
2023/10/31 05:57:23;;;;;;;0.40;0.40;;;9.80;99.90;;;;;;5026750;28;20131;-83
2023/10/31 05:59:49;;;;;;;0.40;0.40;;;9.80;99.90;;;;;;5027973;28;20156;-82
2023/10/31 06:02:15;;;;;;;0.45;0.45;;;9.80;99.90;;;;;;5025123;28;20097;-81
2023/10/31 06:04:41;;;;;;;0.40;0.40;;;9.70;99.90;;;;;;5036199;28;20039;-81
2023/10/31 06:07:07;;;;;;;0.40;0.40;;;9.80;99.90;;;;;;4993949;28;20042;-81
2023/10/31 06:09:33;;;;;;;0.50;0.40;;;9.70;99.90;;;;;;5013230;28;20048;-81
2023/10/31 06:12:02;;;;;;;0.47;0.47;;;9.70;99.90;;;;;;4981508;28;20479;-83
2023/10/31 06:14:28;;;;;;;0.47;0.47;;;9.80;99.90;;;;;;5023018;28;20051;-81
2023/10/31 06:16:54;;;;;;;0.40;0.40;;;9.70;99.90;;;;;;5053671;28;20044;-81
2023/10/31 06:19:20;;;;;;;0.40;0.40;;;9.70;99.90;;;;;;5015121;28;20089;-81
2023/10/31 06:21:46;;;;;;;;;;;9.70;99.90;;;;;;4984872;28;20395;-80
2023/10/31 06:24:11;;;;;;;0.32;0.32;;;9.80;99.90;;;;;;5072016;28;19927;-81
2023/10/31 06:26:37;;;;;;;0.40;0.40;;;9.80;99.90;;;;;;5022694;28;20032;-80
2023/10/31 06:29:03;;;;;;;0.30;0.30;;;9.80;99.90;;;;;;5037560;28;20482;-79
2023/10/31 06:31:29;;;;;;;0.68;0.68;;;9.80;99.90;;;;;;5020142;28;20042;-80
2023/10/31 06:33:55;;;;;;;0.40;0.40;;;9.80;99.90;;;;;;5034371;28;20063;-80
2023/10/31 06:36:20;;;;;;;0.35;0.35;;;9.80;99.90;;;;;;4995471;28;20567;-80
2023/10/31 06:38:46;;;;;;;0.40;0.40;;;9.80;99.90;;;;;;5036852;28;20046;-80
2023/10/31 06:41:11;;;;;;;0.50;0.50;;;9.80;99.90;;;;;;5036433;28;20046;-79
2023/10/31 06:43:37;;;;;;;0.30;0.30;;;9.80;99.90;;;;;;5003462;28;20123;-79
2023/10/31 06:46:05;;;;;;;0.43;0.43;;;9.90;99.90;;;;;;5027355;28;20061;-80
2023/10/31 06:48:30;;;;;;;0.40;0.40;;;9.90;99.90;;;;;;5027963;28;20071;-81
2023/10/31 06:50:56;;;;;;;0.50;0.50;;;9.90;99.90;;;;;;5058409;28;20048;-79
2023/10/31 06:53:22;;;;;;;0.40;0.40;;;9.90;99.90;;;;;;5020817;28;20093;-80
2023/10/31 06:55:48;;;;;;;0.60;0.60;;;9.90;99.90;;;;;;5044570;28;20079;-82
2023/10/31 06:58:14;;;;;;;0.22;0.22;;;9.90;99.90;;;;;;5044314;28;20089;-80
2023/10/31 07:00:39;;;;;;;1.45;0.82;;;10.00;99.90;;;;;;5022334;28;20035;-79
2023/10/31 07:03:09;;;;;;;0.35;0.35;;;10.00;99.90;;;;;;4955394;28;20485;-80
2023/10/31 07:05:38;;;;;;;0.50;0.50;;;10.00;99.90;;;;;;5053164;28;20040;-80
2023/10/31 07:08:05;;;;;;;0.40;0.40;;;10.00;99.90;;;;;;5032086;28;20045;-81
2023/10/31 07:10:30;;;;;;;0.35;0.35;;;10.00;99.90;;;;;;5009695;28;20095;-81
2023/10/31 07:12:58;;;;;;;0.60;0.60;;;10.00;99.90;;;;;;5040179;28;20124;-78
2023/10/31 07:15:24;;;;;;;1.67;1.58;;;10.00;99.90;;;;;;4981530;28;20037;-81
2023/10/31 07:17:50;;;;;;;0.47;0.47;;;10.00;99.90;;;;;;5016333;28;20050;-80
2023/10/31 07:20:16;;;;;;;0.43;0.43;;;10.00;99.90;;;;;;5026210;28;20381;-81
2023/10/31 07:22:48;;;;;;;0.30;0.30;;;10.00;99.90;;;;;;5007467;28;20137;-80
2023/10/31 07:25:14;;;;;;;1.42;1.35;;;10.00;99.90;;;;;;5044459;28;20046;-79
2023/10/31 07:27:39;;;;;;;0.30;0.30;;;10.00;99.90;;;;;;5015248;28;20068;-82
2023/10/31 07:30:06;;;;;;;0.40;0.40;;;10.00;99.90;;;;;;5014743;28;20396;-81
2023/10/31 07:32:32;;;;;;;0.45;0.45;;;10.00;99.90;;;;;;5001211;28;20513;-79
2023/10/31 07:35:07;;;;;;;0.30;0.30;;;10.10;99.90;;;;;;5040111;28;20090;-78
2023/10/31 07:37:33;;;;;;;0.57;0.57;;;10.10;99.90;;;;;;5015775;28;20054;-80
2023/10/31 07:39:58;;;;;;;0.85;0.52;;;10.10;99.90;;;;;;4970774;28;20035;-80
2023/10/31 07:42:24;;;;;;;0.50;0.50;;;10.10;99.90;;;;;;4995553;28;20100;-82
2023/10/31 07:44:50;;;;;;;0.50;0.50;;;10.20;99.90;;;;;;5056185;28;20036;-81
2023/10/31 07:47:16;;;;;;;;;;;10.20;99.90;;;;;;5015752;28;20125;-81
2023/10/31 07:49:42;;;;;;;0.43;0.43;;;10.20;99.90;;;;;;5038549;28;19974;-81
2023/10/31 07:52:07;;;;;;;0.35;0.35;;;10.30;99.90;;;;;;5007581;28;20512;-82
2023/10/31 07:54:33;;;;;;;0.30;0.30;;;10.30;99.90;;;;;;5050908;28;20040;-84
2023/10/31 07:56:59;;;;;;;0.40;0.40;;;10.40;99.90;;;;;;4993487;28;20544;-83
2023/10/31 07:59:26;;;;;;;0.30;0.30;;;10.40;99.90;;;;;;5058859;28;20048;-81
2023/10/31 08:01:52;;;;;;;0.40;0.40;;;10.40;99.90;;;;;;5044119;28;20040;-84
2023/10/31 08:04:17;;;;;;;0.77;0.77;;;10.40;99.90;;;;;;5029462;28;20170;-80
2023/10/31 08:06:43;;;;;;;0.30;0.30;;;10.50;99.90;;;;;;5026881;28;20081;-81
2023/10/31 08:09:16;;;;;;;0.30;0.30;;;10.50;99.90;;;;;;4989285;28;20155;-81
2023/10/31 08:11:42;;;;;;;0.30;0.30;;;10.50;99.90;;;;;;5059426;28;20404;-83
2023/10/31 08:14:07;;;;;;;0.20;0.20;;;10.60;99.90;;;;;;5027283;28;20049;-80
2023/10/31 08:16:34;;;;;;;0.40;0.40;;;10.70;99.90;;;;;;5038828;28;20152;-81
2023/10/31 08:19:00;;;;;;;0.28;0.28;;;10.80;99.90;;;;;;5049638;28;20061;-81
2023/10/31 08:21:28;;;;;;;0.30;0.30;;;10.80;99.90;;;;;;5028790;28;20399;-84
2023/10/31 08:23:55;;;;;;;1.23;0.77;;;10.90;99.90;;;;;;5019725;28;20032;-81
2023/10/31 08:26:20;;;;;;;0.40;0.40;;;10.90;99.90;;;;;;5039018;28;20505;-81
2023/10/31 08:28:46;;;;;;;0.40;0.40;;;11.00;99.90;;;;;;5050610;28;20053;-83
2023/10/31 08:31:11;;;;;;;0.30;0.30;;;11.00;99.90;;;;;;5023839;28;20078;-80
2023/10/31 08:33:37;;;;;;;1.27;1.20;;;11.10;99.90;;;;;;5045020;28;20043;-80
2023/10/31 08:36:03;;;;;;;0.35;0.35;;;11.10;99.90;;;;;;5035346;28;20048;-84
2023/10/31 08:38:29;;;;;;;;;;;11.10;99.90;;;;;;4985231;28;20049;-82
2023/10/31 08:40:56;;;;;;;0.40;0.40;;;11.10;99.90;;;;;;4974739;28;19985;-82
2023/10/31 08:43:21;;;;;;;0.50;0.50;;;11.20;99.90;;;;;;5000877;28;20583;-82
2023/10/31 08:45:47;;;;;;;0.38;0.38;;;11.30;99.90;;;;;;5078677;28;20040;-81
2023/10/31 08:48:13;;;;;;;0.30;0.30;;;11.40;99.90;;;;;;5059108;28;20466;-79
2023/10/31 08:50:44;;;;;;;0.30;0.30;;;11.40;99.90;;;;;;5012812;28;20066;-80
2023/10/31 08:53:11;;;;;;;0.30;0.30;;;11.70;99.90;;;;;;5044800;28;20504;-81
2023/10/31 08:55:37;;;;;;;0.20;0.20;;;11.50;99.90;;;;;;5019475;28;20066;-83
2023/10/31 08:58:03;;;;;;;;;;;11.50;99.90;;;;;;5042094;28;20095;-82
2023/10/31 09:00:29;;;;;;;0.30;0.30;;;11.50;99.90;;;;;;4979057;28;19920;-82
2023/10/31 09:02:55;;;;;;;1.38;1.38;;;11.40;99.90;;;;;;5045094;28;20188;-76
2023/10/31 09:05:21;;;;;;;0.30;0.30;;;11.40;99.90;;;;;;5020728;28;20047;-81
2023/10/31 09:07:48;;;;;;;0.20;0.20;;;11.30;99.90;;;;;;5061859;28;20036;-82
2023/10/31 09:10:14;;;;;;;0.30;0.30;;;11.30;99.90;;;;;;5037287;28;20059;-79
2023/10/31 09:12:40;;;;;;;0.30;0.30;;;11.10;99.90;;;;;;5036885;28;20032;-79
2023/10/31 09:15:06;;;;;;;0.30;0.30;;;11.00;99.90;;;;;;5062600;28;20036;-82
2023/10/31 09:17:32;;;;;;;0.28;0.28;;;11.00;99.90;;;;;;5049607;28;20108;-82
2023/10/31 09:19:59;;;;;;;20.95;1.55;;;10.90;99.90;;;;;;5015898;28;20039;-81
2023/10/31 09:22:24;;;;;;;0.68;0.68;;;10.90;99.90;;;;;;5018052;28;20039;-83
2023/10/31 09:24:50;;;;;;;0.20;0.20;;;10.80;99.90;;;;;;5025838;28;20046;-84
2023/10/31 09:27:16;;;;;;;0.38;0.38;;;10.80;99.90;;;;;;5050998;28;20462;-82
2023/10/31 09:29:41;;;;;;;0.40;0.40;;;10.80;99.90;;;;;;5033378;28;20053;-80
2023/10/31 09:32:07;;;;;;;0.30;0.30;;;10.70;99.90;;;;;;5042773;28;20044;-80
2023/10/31 09:34:33;;;;;;;0.30;0.30;;;10.70;99.90;;;;;;4963067;28;20047;-77
2023/10/31 09:36:59;;;;;;;0.40;0.40;;;10.60;99.90;;;;;;5028484;28;20054;-81
2023/10/31 09:39:24;;;;;;;0.30;0.30;;;10.60;99.90;;;;;;5003375;28;20047;-81
2023/10/31 09:41:50;;;;;;;1.23;1.23;;;10.50;99.90;;;;;;4978969;28;20074;-81
2023/10/31 09:44:22;;;;;;;0.22;0.22;;;10.60;99.90;;;;;;5024472;28;20057;-80
2023/10/31 09:46:51;;;;;;;0.30;0.30;;;10.60;99.90;;;;;;5025987;28;20436;-80
2023/10/31 09:49:18;;;;;;;0.30;0.30;;;10.60;99.90;;;;;;4977929;28;20119;-81
2023/10/31 09:51:46;;;;;;;0.30;0.30;;;10.60;99.90;;;;;;5043087;28;20086;-80
2023/10/31 09:54:15;;;;;;;0.40;0.40;;;10.70;99.90;;;;;;5062093;28;20368;-82
2023/10/31 09:56:41;;;;;;;0.40;0.40;;;10.80;99.90;;;;;;4959748;28;20059;-83
2023/10/31 09:59:07;;;;;;;;;;;10.90;99.90;;;;;;5059161;28;20505;-81
2023/10/31 10:01:33;;;;;;;0.20;0.20;;;10.90;99.90;;;;;;4973430;28;19922;-80
2023/10/31 10:03:59;;;;;;;;;;;10.90;99.90;;;;;;4978072;28;20050;-80
2023/10/31 10:06:26;;;;;;;0.30;0.30;;;11.00;99.90;;;;;;5029297;28;19920;-80
2023/10/31 10:08:52;;;;;;;0.30;0.30;;;11.00;99.90;;;;;;4985053;28;20048;-80
2023/10/31 10:11:18;;;;;;;0.40;0.40;;;11.00;99.90;;;;;;5058580;28;20060;-81
2023/10/31 10:13:44;;;;;;;0.30;0.30;;;11.60;99.90;;;;;;5036220;28;20397;-78
2023/10/31 10:16:11;;;;;;;0.30;0.30;;;11.20;99.90;;;;;;5036245;28;20098;-77
2023/10/31 10:18:40;;;;;;;0.47;0.47;;;11.30;99.90;;;;;;5025355;28;20061;-81
2023/10/31 10:21:09;;;;;;;0.30;0.30;;;11.40;99.90;;;;;;5001684;28;20043;-81
2023/10/31 10:23:34;;;;;;;0.30;0.30;;;11.60;99.90;;;;;;5045369;28;20125;-80
2023/10/31 10:26:02;;;;;;;0.45;0.45;;;11.60;99.90;;;;;;5034699;28;20071;-81
2023/10/31 10:28:32;;;;;;;0.40;0.40;;;11.60;99.90;;;;;;5058537;28;20090;-81
2023/10/31 10:30:59;;;;;;;0.10;0.10;;;11.50;99.90;;;;;;4976459;28;20041;-80
2023/10/31 10:33:24;;;;;;;0.30;0.30;;;11.50;99.90;;;;;;5023652;28;20042;-82
2023/10/31 10:35:50;;;;;;;0.30;0.30;;;11.60;99.90;;;;;;5001611;28;20070;-78
2023/10/31 10:38:17;;;;;;;0.38;0.38;;;11.60;99.90;;;;;;5016066;28;20127;-82
2023/10/31 10:40:48;;;;;;;0.30;0.30;;;11.50;99.90;;;;;;5040888;28;20043;-82
2023/10/31 10:43:24;;;;;;;0.30;0.30;;;11.50;99.90;;;;;;4957806;28;20122;-82
2023/10/31 10:45:57;;;;;;;0.30;0.30;;;11.50;99.90;;;;;;5029492;28;20130;-79
2023/10/31 10:48:25;;;;;;;0.20;0.20;;;11.50;99.90;;;;;;5031303;28;20032;-82
2023/10/31 10:51:02;;;;;;;0.40;0.40;;;11.50;99.90;;;;;;5015494;28;20040;-79
2023/10/31 10:54:11;;;;;;;0.30;0.30;;;11.60;99.90;;;;;;5015329;28;20470;-79
2023/10/31 10:56:52;;;;;;;0.40;0.40;;;11.70;99.90;;;;;;5014863;28;20059;-81
2023/10/31 10:59:20;;;;;;;0.20;0.20;;;11.80;99.90;;;;;;5052324;28;20453;-82
2023/10/31 11:01:48;;;;;;;0.35;0.35;;;11.80;99.90;;;;;;5056010;28;20038;-82
2023/10/31 11:04:15;;;;;;;0.25;0.25;;;11.80;99.90;;;;;;4999240;28;20478;-81
2023/10/31 11:06:49;;;;;;;0.30;0.30;;;11.90;99.90;;;;;;5029364;28;20501;-80
2023/10/31 11:09:19;;;;;;;0.20;0.20;;;11.90;99.90;;;;;;5074958;28;20044;-85
2023/10/31 11:11:48;;;;;;;0.30;0.30;;;12.00;99.90;;;;;;5040871;28;20051;-79
2023/10/31 11:14:16;;;;;;;0.30;0.30;;;12.10;99.90;;;;;;5056510;28;20467;-82
2023/10/31 11:16:47;;;;;;;0.30;0.30;;;12.10;99.90;;;;;;5013407;28;20114;-81
2023/10/31 11:19:13;;;;;;;0.30;0.30;;;12.20;99.90;;;;;;5000106;28;20070;-82
2023/10/31 11:22:00;;;;;;;0.30;0.30;;;12.20;99.90;;;;;;4988658;28;20042;-80
2023/10/31 11:24:34;;;;;;;0.30;0.30;;;12.10;99.90;;;;;;5011346;28;20075;-82
2023/10/31 11:27:02;;;;;;;0.20;0.20;;;12.10;99.90;;;;;;4993434;28;20040;-82
2023/10/31 11:29:28;;;;;;;0.30;0.30;;;12.10;99.90;;;;;;5030959;28;20504;-82
2023/10/31 11:31:57;;;;;;;0.30;0.30;;;12.20;99.90;;;;;;5073874;28;20076;-82
2023/10/31 11:34:25;;;;;;;0.28;0.28;;;12.20;99.90;;;;;;5010868;28;20480;-82
2023/10/31 11:36:52;;;;;;;0.30;0.30;;;12.20;99.90;;;;;;5003987;28;20070;-81
2023/10/31 11:39:25;;;;;;;0.30;0.30;;;12.10;99.90;;;;;;5015847;28;20118;-79
2023/10/31 11:41:55;;;;;;;0.30;0.30;;;12.00;99.90;;;;;;4975478;28;20047;-84
2023/10/31 11:44:27;;;;;;;0.22;0.22;;;12.00;99.90;;;;;;4997827;28;20446;-79
2023/10/31 11:46:53;;;;;;;0.30;0.30;;;11.90;99.90;;;;;;5041457;28;20062;-83
2023/10/31 11:49:48;;;;;;;0.30;0.30;;;12.00;99.90;;;;;;5014485;28;20044;-84
2023/10/31 11:52:20;;;;;;;0.28;0.28;;;12.00;99.90;;;;;;5003742;28;20117;-82
2023/10/31 11:54:46;;;;;;;0.30;0.30;;;12.00;99.90;;;;;;5042832;28;20054;-82
2023/10/31 11:57:25;;;;;;;0.65;0.65;;;12.20;99.90;;;;;;5021325;28;20063;-81
2023/10/31 11:59:51;;;;;;;0.30;0.30;;;12.30;99.90;;;;;;5014554;28;20530;-82
2023/10/31 12:02:18;;;;;;;0.30;0.30;;;12.50;99.90;;;;;;4949952;28;20058;-81
2023/10/31 12:04:49;;;;;;;0.30;0.30;;;12.50;99.90;;;;;;5057984;28;20085;-83
2023/10/31 12:07:15;;;;;;;0.30;0.30;;;12.50;99.90;;;;;;5054743;28;20052;-82
2023/10/31 12:09:48;;;;;;;0.20;0.20;;;12.40;99.90;;;;;;4972426;28;20050;-82
2023/10/31 12:12:14;;;;;;;0.20;0.20;;;12.30;99.90;;;;;;4997562;28;20537;-81
2023/10/31 12:14:41;;;;;;;0.30;0.30;;;12.20;99.90;;;;;;5013428;28;20442;-86
2023/10/31 12:17:07;;;;;;;0.20;0.20;;;12.20;99.90;;;;;;4989029;28;20402;-79
2023/10/31 12:19:34;;;;;;;0.30;0.30;;;12.20;99.90;;;;;;5029379;28;20058;-81
2023/10/31 12:22:14;;;;;;;0.68;0.68;;;12.20;99.90;;;;;;5042875;28;20445;-82
2023/10/31 12:24:40;;;;;;;0.30;0.30;;;12.10;99.90;;;;;;5065206;28;20065;-81
2023/10/31 12:27:06;;;;;;;0.30;0.30;;;12.00;99.90;;;;;;5003619;28;20035;-81
2023/10/31 12:29:33;;;;;;;0.40;0.40;;;11.90;99.90;;;;;;5039248;28;20044;-79
2023/10/31 12:31:59;;;;;;;0.40;0.40;;;11.80;99.90;;;;;;5014272;28;20095;-80
2023/10/31 12:34:25;;;;;;;0.20;0.20;;;11.70;99.90;;;;;;5025327;28;20121;-84
2023/10/31 12:36:52;;;;;;;0.30;0.30;;;11.50;99.90;;;;;;5019193;28;20513;-82
2023/10/31 12:39:23;;;;;;;0.30;0.30;;;11.40;99.90;;;;;;4993130;28;20065;-81
2023/10/31 12:41:49;;;;;;;0.30;0.30;;;11.30;99.90;;;;;;5026019;28;20050;-81
2023/10/31 12:44:20;;;;;;;;;;;11.20;99.90;;;;;;5044403;28;20484;-83
2023/10/31 12:46:48;;;;;;;0.45;0.45;;;11.10;99.90;;;;;;5021298;28;20437;-80
2023/10/31 12:49:29;;;;;;;0.30;0.30;;;11.00;99.90;;;;;;5071486;28;20086;-83
2023/10/31 12:52:05;;;;;;;0.30;0.30;;;11.00;99.90;;;;;;5060084;28;20846;-82
2023/10/31 12:54:37;;;;;;;0.40;0.40;;;11.00;99.90;;;;;;5015977;28;20049;-81